Time;durP1;ratioP1;P1;durP2;ratioP2;P2;SDS_P1;SDS_P2;PMS_P1;PMS_P2;Temp;Humidity;BMP_temperature;BMP_pressure;BME280_temperature;BME280_humidity;BME280_pressure;Samples;Min_cycle;Max_cycle;Signal;HPM_P1;HPM_P2
2023/05/29 00:03:57;;;;;;;7.68;4.07;;;;;;;;;;8407978;28;20119;-88
2023/05/29 00:08:02;;;;;;;10.18;4.22;;;;;;;;;;8407279;28;20048;-87
2023/05/29 00:12:06;;;;;;;10.68;3.80;;;;;;;;;;8407109;28;20456;-88
2023/05/29 00:16:12;;;;;;;8.45;4.78;;;;;;;;;;8374158;28;20055;-88
2023/05/29 00:20:15;;;;;;;10.45;3.70;;;;;;;;;;8395761;28;20124;-88
2023/05/29 00:24:22;;;;;;;8.98;3.78;;;;;;;;;;8387650;28;20052;-88
2023/05/29 00:28:28;;;;;;;8.68;3.90;;;;;;;;;;8374639;28;20052;-90
2023/05/29 00:32:31;;;;;;;7.32;3.58;;;;;;;;;;8402752;28;20530;-88
2023/05/29 00:36:36;;;;;;;6.80;3.75;;;;;;;;;;8408325;28;20084;-89
2023/05/29 00:40:45;;;;;;;8.32;4.60;;;;;;;;;;8390306;28;20070;-89
2023/05/29 00:44:51;;;;;;;6.30;3.70;;;;;;;;;;8398667;28;20049;-89
2023/05/29 00:48:57;;;;;;;8.05;3.90;;;;;;;;;;8395815;28;20044;-90
2023/05/29 00:53:03;;;;;;;7.07;4.05;;;;;;;;;;8405140;28;20044;-88
2023/05/29 00:57:07;;;;;;;9.60;3.88;;;;;;;;;;8405296;28;20115;-89
2023/05/29 01:01:13;;;;;;;7.70;4.18;;;;;;;;;;8405699;28;20508;-88
2023/05/29 01:05:16;;;;;;;8.38;3.65;;;;;;;;;;8389442;28;20046;-90
2023/05/29 01:09:19;;;;;;;7.15;4.20;;;;;;;;;;8403911;28;20381;-87
2023/05/29 01:13:29;;;;;;;7.18;3.95;;;;;;;;;;8410679;28;20430;-89
2023/05/29 01:17:43;;;;;;;12.95;5.60;;;;;;;;;;8382420;28;20492;-88
2023/05/29 01:22:13;;;;;;;9.63;4.60;;;;;;;;;;8388508;28;20053;-89
2023/05/29 01:26:58;;;;;;;10.68;4.15;;;;;;;;;;8393435;28;20118;-88
2023/05/29 01:31:06;;;;;;;7.20;4.25;;;;;;;;;;8392973;28;20079;-90
2023/05/29 01:35:10;;;;;;;7.90;4.00;;;;;;;;;;8390663;28;20504;-89
2023/05/29 01:39:15;;;;;;;9.57;4.82;;;;;;;;;;8405779;28;20119;-88
2023/05/29 01:43:30;;;;;;;8.05;4.85;;;;;;;;;;8406683;28;20068;-90
2023/05/29 01:47:35;;;;;;;10.68;5.07;;;;;;;;;;8408260;28;20052;-87
2023/05/29 01:51:40;;;;;;;10.38;4.80;;;;;;;;;;8404759;28;20471;-87
2023/05/29 01:55:43;;;;;;;8.88;5.00;;;;;;;;;;8392828;28;20127;-88
2023/05/29 01:59:49;;;;;;;12.40;4.90;;;;;;;;;;8403705;28;20101;-88
2023/05/29 02:03:52;;;;;;;7.80;4.63;;;;;;;;;;8404353;28;20044;-88
2023/05/29 02:07:57;;;;;;;8.27;4.68;;;;;;;;;;8407803;28;20055;-87
2023/05/29 02:12:00;;;;;;;9.10;5.18;;;;;;;;;;8407313;28;20048;-87
2023/05/29 02:16:08;;;;;;;10.38;4.53;;;;;;;;;;8393742;28;20045;-88
2023/05/29 02:20:12;;;;;;;10.13;5.25;;;;;;;;;;8407040;28;20127;-87
2023/05/29 02:24:15;;;;;;;9.23;5.03;;;;;;;;;;8359902;28;20068;-87
2023/05/29 02:28:18;;;;;;;9.55;4.72;;;;;;;;;;8382870;28;20119;-88
2023/05/29 02:32:23;;;;;;;8.65;4.38;;;;;;;;;;8408707;28;20045;-87
2023/05/29 02:36:27;;;;;;;9.52;4.57;;;;;;;;;;8398969;28;20462;-86
2023/05/29 02:40:30;;;;;;;9.95;4.70;;;;;;;;;;8401397;28;20552;-89
2023/05/29 02:44:37;;;;;;;12.40;5.97;;;;;;;;;;8388004;28;20067;-88
2023/05/29 02:48:42;;;;;;;9.48;5.00;;;;;;;;;;8384268;28;20052;-88
2023/05/29 02:52:47;;;;;;;8.27;4.43;;;;;;;;;;8392660;28;20040;-92
2023/05/29 02:56:53;;;;;;;10.13;4.72;;;;;;;;;;8385822;28;20084;-93
2023/05/29 03:00:56;;;;;;;5.88;4.13;;;;;;;;;;8383225;28;20065;-88
2023/05/29 03:05:01;;;;;;;9.95;5.18;;;;;;;;;;8400247;28;20044;-88
2023/05/29 03:09:05;;;;;;;10.43;4.40;;;;;;;;;;8385529;28;20078;-88
2023/05/29 03:13:08;;;;;;;8.15;4.35;;;;;;;;;;8404522;28;20544;-88
2023/05/29 03:17:12;;;;;;;6.93;4.38;;;;;;;;;;8390919;28;20044;-88
2023/05/29 03:21:17;;;;;;;6.88;3.92;;;;;;;;;;8368199;28;20040;-88
2023/05/29 03:25:21;;;;;;;6.78;3.90;;;;;;;;;;8378545;28;20045;-91
2023/05/29 03:29:26;;;;;;;11.05;3.92;;;;;;;;;;8399878;28;20114;-91
2023/05/29 03:33:29;;;;;;;8.63;4.00;;;;;;;;;;8389093;28;20045;-88
2023/05/29 03:37:35;;;;;;;8.13;3.80;;;;;;;;;;8385421;28;20446;-89
2023/05/29 03:41:38;;;;;;;7.25;4.00;;;;;;;;;;8375860;28;20049;-89
2023/05/29 03:45:41;;;;;;;6.93;4.05;;;;;;;;;;8382258;28;20120;-89
2023/05/29 03:49:44;;;;;;;7.68;4.20;;;;;;;;;;8380667;28;20047;-89
2023/05/29 03:53:49;;;;;;;7.72;3.45;;;;;;;;;;8417274;28;20041;-90
2023/05/29 03:57:52;;;;;;;6.70;4.07;;;;;;;;;;8403779;28;20102;-90
2023/05/29 04:01:55;;;;;;;8.23;3.95;;;;;;;;;;8395077;28;20064;-89
2023/05/29 04:05:59;;;;;;;8.15;4.03;;;;;;;;;;8400496;28;20072;-89
2023/05/29 04:10:04;;;;;;;9.65;3.70;;;;;;;;;;8367588;28;20076;-89
2023/05/29 04:14:09;;;;;;;5.60;2.90;;;;;;;;;;8395964;28;20072;-90
2023/05/29 04:18:12;;;;;;;8.65;3.42;;;;;;;;;;8390907;28;20471;-89
2023/05/29 04:22:15;;;;;;;7.00;3.38;;;;;;;;;;8403862;28;20122;-89
2023/05/29 04:26:24;;;;;;;7.00;3.38;;;;;;;;;;8402489;28;20141;-90
2023/05/29 04:30:28;;;;;;;7.93;3.30;;;;;;;;;;8410223;28;20480;-91
2023/05/29 04:34:31;;;;;;;7.07;3.15;;;;;;;;;;8386565;28;20051;-90
2023/05/29 04:38:36;;;;;;;9.10;7.18;;;;;;;;;;8389250;28;20091;-90
2023/05/29 04:42:41;;;;;;;10.43;6.53;;;;;;;;;;8402300;28;20432;-90
2023/05/29 04:46:44;;;;;;;8.20;3.88;;;;;;;;;;8395482;28;20049;-90
2023/05/29 04:50:48;;;;;;;13.55;3.80;;;;;;;;;;8389025;28;20052;-92
2023/05/29 04:54:52;;;;;;;7.35;3.13;;;;;;;;;;8394908;28;20508;-91
2023/05/29 04:59:12;;;;;;;10.32;3.00;;;;;;;;;;8383571;28;20055;-92
2023/05/29 05:03:17;;;;;;;7.63;2.83;;;;;;;;;;8398862;28;20076;-91
2023/05/29 05:07:20;;;;;;;12.23;3.00;;;;;;;;;;8417914;28;20041;-91
2023/05/29 05:11:26;;;;;;;10.60;3.30;;;;;;;;;;8392007;28;20048;-94
2023/05/29 05:15:36;;;;;;;4.30;2.50;;;;;;;;;;8372753;28;20091;-91
2023/05/29 05:19:45;;;;;;;7.43;2.80;;;;;;;;;;8366595;28;20059;-92
2023/05/29 05:23:50;;;;;;;;;;;;;;;;;;8401566;28;20074;-91
2023/05/29 05:28:02;;;;;;;6.72;2.72;;;;;;;;;;8429176;28;20299;-93
2023/05/29 05:32:08;;;;;;;7.07;3.17;;;;;;;;;;8403552;28;20485;-91
2023/05/29 05:36:12;;;;;;;7.45;2.80;;;;;;;;;;8388808;28;20090;-92
2023/05/29 05:40:18;;;;;;;7.53;3.33;;;;;;;;;;8397179;28;20071;-91
2023/05/29 05:44:21;;;;;;;5.25;3.10;;;;;;;;;;8390934;28;20052;-91
2023/05/29 05:48:25;;;;;;;11.40;3.60;;;;;;;;;;8385787;28;20458;-92
2023/05/29 05:52:33;;;;;;;7.63;3.08;;;;;;;;;;8400398;28;20103;-91
2023/05/29 05:56:36;;;;;;;4.78;2.33;;;;;;;;;;8398352;28;20508;-92
2023/05/29 06:00:40;;;;;;;6.97;2.72;;;;;;;;;;8404828;28;20040;-92
2023/05/29 06:04:45;;;;;;;14.68;3.65;;;;;;;;;;8405410;28;20040;-92
2023/05/29 06:08:48;;;;;;;4.20;1.95;;;;;;;;;;8402089;28;20079;-93
2023/05/29 06:12:52;;;;;;;7.40;3.08;;;;;;;;;;8386494;28;20123;-95
2023/05/29 06:16:56;;;;;;;4.22;2.38;;;;;;;;;;8400583;28;20488;-92
2023/05/29 06:21:01;;;;;;;3.42;1.70;;;;;;;;;;8401265;28;20119;-94
2023/05/29 06:25:04;;;;;;;2.45;1.70;;;;;;;;;;8402388;28;20103;-93
2023/05/29 06:29:07;;;;;;;3.65;1.60;;;;;;;;;;8393007;28;20394;-93
2023/05/29 06:45:42;;;;;;;2.88;1.60;;;;;;;;;;8362697;27;20470;-96
2023/05/29 06:49:48;;;;;;;6.28;1.73;;;;;;;;;;8373216;28;20477;-96
2023/05/29 06:53:54;;;;;;;4.80;1.70;;;;;;;;;;8339672;28;20140;-96
2023/05/29 06:57:57;;;;;;;5.10;1.80;;;;;;;;;;8335976;28;20041;-96
2023/05/29 07:02:02;;;;;;;5.15;1.50;;;;;;;;;;8342976;28;20050;-96
2023/05/29 07:06:07;;;;;;;3.38;1.63;;;;;;;;;;8364522;28;20686;-96
2023/05/29 07:10:11;;;;;;;2.80;1.58;;;;;;;;;;8332287;28;20054;-96
2023/05/29 07:14:19;;;;;;;3.30;1.50;;;;;;;;;;8337395;28;20072;-96
2023/05/29 07:18:24;;;;;;;2.90;1.65;;;;;;;;;;8323596;28;20046;-96
2023/05/29 07:22:28;;;;;;;2.67;1.58;;;;;;;;;;8331435;28;20045;-96
2023/05/29 07:26:31;;;;;;;2.60;1.60;;;;;;;;;;8332867;28;20049;-96
2023/05/29 07:30:35;;;;;;;2.92;1.50;;;;;;;;;;8344461;28;20065;-96
2023/05/29 07:34:40;;;;;;;2.45;1.38;;;;;;;;;;8329195;28;20048;-96
2023/05/29 07:38:43;;;;;;;10.77;2.03;;;;;;;;;;8328676;28;20104;-96
2023/05/29 07:42:47;;;;;;;13.88;7.97;;;;;;;;;;8329029;28;20069;-96
2023/05/29 07:46:50;;;;;;;5.75;1.60;;;;;;;;;;8306752;28;20054;-95
2023/05/29 07:50:55;;;;;;;8.68;1.90;;;;;;;;;;8325312;28;20046;-96
2023/05/29 07:55:01;;;;;;;4.85;1.90;;;;;;;;;;8337983;28;20076;-96
2023/05/29 07:59:08;;;;;;;3.25;1.60;;;;;;;;;;8315423;28;20060;-96
2023/05/29 08:03:11;;;;;;;6.95;2.08;;;;;;;;;;8315902;28;20054;-95
2023/05/29 08:07:18;;;;;;;4.47;1.73;;;;;;;;;;8331679;28;20137;-95
2023/05/29 08:11:23;;;;;;;7.22;3.15;;;;;;;;;;8316250;28;20124;-95
2023/05/29 08:15:27;;;;;;;55.92;28.65;;;;;;;;;;8308649;28;20044;-96
2023/05/29 08:19:30;;;;;;;2.70;1.73;;;;;;;;;;8298127;28;20057;-95
2023/05/29 08:23:56;;;;;;;5.75;2.00;;;;;;;;;;8302383;28;20038;-95
2023/05/29 08:28:03;;;;;;;24.30;12.70;;;;;;;;;;8306285;28;20416;-96
2023/05/29 08:37:12;;;;;;;3.45;1.90;;;;;;;;;;8293868;28;20057;-96
2023/05/29 08:42:06;;;;;;;4.72;2.00;;;;;;;;;;8344917;28;20052;-96
2023/05/29 08:46:15;;;;;;;5.05;1.83;;;;;;;;;;8498040;22;20436;-96
2023/05/29 08:50:48;;;;;;;5.97;1.90;;;;;;;;;;8430986;28;20104;-96
2023/05/29 09:16:41;;;;;;;7.70;1.90;;;;;;;;;;8298944;28;20050;-96
2023/05/29 09:51:30;;;;;;;7.97;2.17;;;;;;;;;;8699734;23;20086;-95
2023/05/29 09:55:41;;;;;;;4.03;2.10;;;;;;;;;;8229940;23;20113;-95
2023/05/29 10:00:39;;;;;;;5.03;2.13;;;;;;;;;;8179791;29;20050;-96
2023/05/29 10:05:47;;;;;;;2.53;1.58;;;;;;;;;;8150260;23;20685;-95
2023/05/29 10:09:55;;;;;;;4.07;1.90;;;;;;;;;;8073941;29;20424;-96
2023/05/29 10:34:34;;;;;;;5.53;1.80;;;;;;;;;;9343060;23;20027;-96
2023/05/29 10:38:42;;;;;;;5.05;1.80;;;;;;;;;;8083686;29;20053;-95
2023/05/29 10:42:47;;;;;;;4.85;1.88;;;;;;;;;;8087556;29;20485;-94
2023/05/29 10:47:03;;;;;;;5.57;1.88;;;;;;;;;;8100351;29;20485;-96
2023/05/29 10:51:16;;;;;;;3.63;1.55;;;;;;;;;;8116257;29;20056;-96
2023/05/29 10:55:35;;;;;;;4.55;2.10;;;;;;;;;;8119041;23;20056;-95
2023/05/29 11:00:13;;;;;;;4.53;1.80;;;;;;;;;;8138119;29;20064;-96
2023/05/29 11:04:33;;;;;;;2.97;1.83;;;;;;;;;;8135082;29;20413;-95
2023/05/29 11:08:45;;;;;;;4.00;1.80;;;;;;;;;;8140513;29;20096;-95
2023/05/29 11:13:08;;;;;;;5.85;1.90;;;;;;;;;;8164948;29;20055;-96
2023/05/29 11:17:30;;;;;;;4.05;1.90;;;;;;;;;;8146110;29;20068;-95
2023/05/29 11:36:12;;;;;;;3.10;1.70;;;;;;;;;;8248710;23;20049;-94
2023/05/29 11:40:20;;;;;;;4.00;1.90;;;;;;;;;;8080495;29;20061;-96
2023/05/29 11:44:25;;;;;;;4.70;1.80;;;;;;;;;;8074352;29;20045;-95
2023/05/29 11:48:29;;;;;;;5.45;1.92;;;;;;;;;;8079621;29;20450;-96
2023/05/29 11:52:49;;;;;;;8.85;2.20;;;;;;;;;;8075400;29;20053;-96
2023/05/29 11:57:00;;;;;;;4.78;2.03;;;;;;;;;;8108772;29;20040;-96
2023/05/29 12:02:02;;;;;;;4.50;2.10;;;;;;;;;;8153805;23;20062;-96
2023/05/29 12:07:14;;;;;;;4.50;2.00;;;;;;;;;;8362724;23;20056;-95
2023/05/29 12:16:17;;;;;;;6.30;2.10;;;;;;;;;;8007431;29;20104;-94
2023/05/29 12:20:27;;;;;;;2.53;1.80;;;;;;;;;;8142709;29;20051;-94
2023/05/29 12:30:01;;;;;;;4.30;1.90;;;;;;;;;;8054102;29;20128;-96
2023/05/29 12:35:06;;;;;;;3.85;1.83;;;;;;;;;;8058466;29;20049;-96
2023/05/29 12:40:10;;;;;;;5.07;2.03;;;;;;;;;;8090058;23;20682;-96
2023/05/29 12:44:13;;;;;;;3.15;2.15;;;;;;;;;;8165840;23;20067;-96
2023/05/29 12:48:21;;;;;;;4.30;1.90;;;;;;;;;;8178675;29;20052;-96
2023/05/29 12:52:26;;;;;;;6.85;2.30;;;;;;;;;;8177988;29;20051;-96
2023/05/29 12:56:34;;;;;;;4.43;2.13;;;;;;;;;;8174446;29;20058;-96
2023/05/29 13:00:40;;;;;;;3.40;1.90;;;;;;;;;;8175588;29;20048;-96
2023/05/29 13:04:46;;;;;;;4.50;1.73;;;;;;;;;;8153724;29;20051;-96
2023/05/29 13:09:02;;;;;;;7.30;2.00;;;;;;;;;;8158762;29;20060;-96
2023/05/29 13:13:09;;;;;;;4.70;2.17;;;;;;;;;;8175672;29;20043;-95
2023/05/29 13:17:21;;;;;;;7.18;2.28;;;;;;;;;;8175635;29;20071;-96
2023/05/29 13:21:32;;;;;;;5.65;2.10;;;;;;;;;;8176952;29;20075;-96
2023/05/29 13:25:45;;;;;;;10.52;2.20;;;;;;;;;;8172622;29;20055;-96
2023/05/29 13:30:05;;;;;;;3.28;2.00;;;;;;;;;;8143505;29;20056;-96
2023/05/29 13:34:09;;;;;;;5.95;2.15;;;;;;;;;;8172221;29;20075;-95
2023/05/29 13:38:19;;;;;;;5.28;2.05;;;;;;;;;;8176595;29;20039;-96
2023/05/29 13:42:25;;;;;;;4.10;2.23;;;;;;;;;;8175122;29;20055;-96
2023/05/29 13:46:28;;;;;;;6.65;1.65;;;;;;;;;;8174531;29;20304;-96
2023/05/29 13:50:32;;;;;;;6.80;2.08;;;;;;;;;;8176110;29;20099;-96
2023/05/29 13:59:30;;;;;;;4.75;1.80;;;;;;;;;;8175480;23;20051;-96
2023/05/29 14:03:35;;;;;;;5.45;2.17;;;;;;;;;;8093984;29;20057;-96
2023/05/29 14:07:39;;;;;;;2.75;1.92;;;;;;;;;;8111495;29;20056;-96
2023/05/29 14:11:56;;;;;;;6.25;2.03;;;;;;;;;;8113805;29;20044;-96
2023/05/29 14:16:00;;;;;;;3.30;1.98;;;;;;;;;;8082967;29;20048;-96
2023/05/29 14:20:12;;;;;;;4.43;2.17;;;;;;;;;;8065674;29;20101;-95
2023/05/29 14:24:17;;;;;;;4.78;2.00;;;;;;;;;;8105441;29;20101;-94
2023/05/29 14:28:27;;;;;;;4.25;2.22;;;;;;;;;;8087507;29;20045;-95
2023/05/29 14:32:30;;;;;;;7.28;2.58;;;;;;;;;;8111126;29;20060;-96
2023/05/29 14:36:36;;;;;;;8.35;2.20;;;;;;;;;;8112946;23;20449;-95
2023/05/29 14:40:54;;;;;;;4.63;1.90;;;;;;;;;;8137724;29;20060;-95
2023/05/29 14:45:10;;;;;;;7.25;2.20;;;;;;;;;;8136897;29;20055;-95
2023/05/29 14:49:33;;;;;;;2.78;1.88;;;;;;;;;;8126036;29;20041;-96
2023/05/29 14:53:38;;;;;;;4.47;2.15;;;;;;;;;;8135069;29;20074;-95
2023/05/29 14:57:42;;;;;;;4.70;2.20;;;;;;;;;;8146525;29;20107;-96
2023/05/29 15:02:16;;;;;;;3.70;2.10;;;;;;;;;;8145306;29;20079;-96
2023/05/29 15:06:19;;;;;;;4.07;1.63;;;;;;;;;;8129692;29;20063;-96
2023/05/29 15:10:25;;;;;;;2.70;1.90;;;;;;;;;;8148331;29;20446;-95
2023/05/29 15:14:29;;;;;;;3.78;2.05;;;;;;;;;;8135423;29;20563;-95
2023/05/29 15:18:57;;;;;;;5.13;1.90;;;;;;;;;;8152236;23;20116;-96
2023/05/29 17:05:06;;;;;;;4.10;2.30;;;;;;;;;;8458050;27;1836388;-90
2023/05/29 17:09:09;;;;;;;5.35;2.22;;;;;;;;;;8483039;28;20134;-90
2023/05/29 17:13:13;;;;;;;4.95;2.55;;;;;;;;;;8477171;27;20051;-90
2023/05/29 17:17:15;;;;;;;4.30;2.17;;;;;;;;;;8481702;28;20489;-90
2023/05/29 17:21:20;;;;;;;9.52;2.60;;;;;;;;;;8475172;28;20074;-90
2023/05/29 17:25:24;;;;;;;5.88;2.40;;;;;;;;;;8472517;28;20052;-89
2023/05/29 17:29:27;;;;;;;5.13;2.65;;;;;;;;;;8464641;28;20406;-89
2023/05/29 17:33:30;;;;;;;6.40;2.50;;;;;;;;;;8478686;28;20496;-92
2023/05/29 17:37:35;;;;;;;7.78;2.50;;;;;;;;;;8482832;28;20080;-90
2023/05/29 17:41:38;;;;;;;5.28;2.53;;;;;;;;;;8465405;28;20043;-89
2023/05/29 17:45:40;;;;;;;6.00;2.67;;;;;;;;;;8473674;28;20118;-89
2023/05/29 17:49:44;;;;;;;7.70;2.70;;;;;;;;;;8483338;28;20136;-90
2023/05/29 17:53:48;;;;;;;4.68;2.40;;;;;;;;;;8483227;28;20048;-90
2023/05/29 17:57:51;;;;;;;7.60;2.85;;;;;;;;;;8488426;27;20439;-90
2023/05/29 18:01:55;;;;;;;6.72;2.85;;;;;;;;;;8522244;27;20055;-89
2023/05/29 18:05:59;;;;;;;9.10;3.55;;;;;;;;;;8500689;27;20042;-90
2023/05/29 18:10:05;;;;;;;9.50;3.25;;;;;;;;;;8500460;27;20043;-90
2023/05/29 18:14:09;;;;;;;9.68;3.10;;;;;;;;;;8501028;27;20092;-89
2023/05/29 18:18:13;;;;;;;12.07;5.10;;;;;;;;;;8500147;27;20413;-90
2023/05/29 18:22:19;;;;;;;14.65;5.55;;;;;;;;;;8499717;27;20063;-92
2023/05/29 18:26:23;;;;;;;24.75;7.43;;;;;;;;;;8486208;27;20455;-90
2023/05/29 18:30:27;;;;;;;14.18;5.35;;;;;;;;;;8479661;27;20046;-90
2023/05/29 18:34:31;;;;;;;15.95;5.68;;;;;;;;;;8466497;28;20164;-91
2023/05/29 18:38:34;;;;;;;14.55;5.53;;;;;;;;;;8495616;27;20092;-91
2023/05/29 18:42:38;;;;;;;13.38;5.57;;;;;;;;;;8479138;27;20039;-91
2023/05/29 18:46:42;;;;;;;11.40;5.75;;;;;;;;;;8466219;28;20054;-90
2023/05/29 18:50:45;;;;;;;15.25;5.18;;;;;;;;;;8466595;27;20122;-90
2023/05/29 18:54:48;;;;;;;16.42;5.18;;;;;;;;;;8465695;28;20127;-90
2023/05/29 18:58:52;;;;;;;10.32;4.85;;;;;;;;;;8465701;28;20096;-91
2023/05/29 19:02:55;;;;;;;9.25;4.78;;;;;;;;;;8465193;28;20062;-90
2023/05/29 19:06:58;;;;;;;14.95;6.90;;;;;;;;;;8465440;28;20119;-90
2023/05/29 19:11:01;;;;;;;16.73;7.70;;;;;;;;;;8465106;28;20047;-90
2023/05/29 19:15:07;;;;;;;10.50;4.50;;;;;;;;;;8464230;28;20071;-91
2023/05/29 19:19:11;;;;;;;9.85;4.57;;;;;;;;;;8465052;28;20434;-90
2023/05/29 19:23:14;;;;;;;66.25;19.50;;;;;;;;;;8464875;28;20078;-90
2023/05/29 19:27:18;;;;;;;15.07;6.90;;;;;;;;;;8464708;28;20070;-90
2023/05/29 19:31:25;;;;;;;11.82;4.68;;;;;;;;;;8464609;28;20047;-91
2023/05/29 19:35:29;;;;;;;9.45;4.55;;;;;;;;;;8464510;28;20044;-90
2023/05/29 19:39:32;;;;;;;9.68;4.43;;;;;;;;;;8464443;28;20074;-90
2023/05/29 19:43:36;;;;;;;8.82;3.83;;;;;;;;;;8463926;28;20039;-90
2023/05/29 19:47:40;;;;;;;6.55;3.30;;;;;;;;;;8464161;28;20100;-90
2023/05/29 19:51:44;;;;;;;14.15;5.82;;;;;;;;;;8462451;28;20047;-91
2023/05/29 19:55:48;;;;;;;13.82;5.35;;;;;;;;;;8457763;28;20039;-91
2023/05/29 19:59:53;;;;;;;9.15;4.43;;;;;;;;;;8463620;28;20070;-90
2023/05/29 20:03:59;;;;;;;34.65;15.25;;;;;;;;;;8463446;28;20063;-90
2023/05/29 20:08:02;;;;;;;87.82;42.90;;;;;;;;;;8464206;28;20386;-91
2023/05/29 20:12:07;;;;;;;10.15;5.35;;;;;;;;;;8463291;28;20043;-90
2023/05/29 20:16:10;;;;;;;28.23;16.10;;;;;;;;;;8463010;28;20116;-90
2023/05/29 20:20:14;;;;;;;37.88;18.77;;;;;;;;;;8462411;28;20487;-91
2023/05/29 20:24:17;;;;;;;12.02;5.75;;;;;;;;;;8463022;28;20043;-89
2023/05/29 20:28:21;;;;;;;11.38;4.00;;;;;;;;;;8461791;28;20051;-91
2023/05/29 20:32:25;;;;;;;8.32;4.15;;;;;;;;;;8462548;28;20122;-90
2023/05/29 20:36:29;;;;;;;7.43;4.78;;;;;;;;;;8462778;28;20134;-90
2023/05/29 20:40:36;;;;;;;7.38;4.40;;;;;;;;;;8462629;28;20050;-90
2023/05/29 20:44:39;;;;;;;8.20;4.50;;;;;;;;;;8462547;28;20051;-90
2023/05/29 20:48:42;;;;;;;6.68;4.55;;;;;;;;;;8462622;28;20063;-90
2023/05/29 20:52:47;;;;;;;11.68;4.93;;;;;;;;;;8462494;28;20053;-90
2023/05/29 20:56:50;;;;;;;12.13;5.20;;;;;;;;;;8462396;28;20051;-90
2023/05/29 21:00:53;;;;;;;10.98;4.28;;;;;;;;;;8462346;28;20071;-91
2023/05/29 21:04:56;;;;;;;10.98;4.88;;;;;;;;;;8461740;28;20135;-89
2023/05/29 21:09:00;;;;;;;10.93;4.65;;;;;;;;;;8462195;28;20126;-91
2023/05/29 21:13:03;;;;;;;8.40;4.72;;;;;;;;;;8462399;28;20067;-90
2023/05/29 21:17:07;;;;;;;9.02;4.60;;;;;;;;;;8462101;28;20104;-91
2023/05/29 21:21:11;;;;;;;10.63;5.38;;;;;;;;;;8459553;28;20036;-91
2023/05/29 21:25:16;;;;;;;9.35;5.60;;;;;;;;;;8461720;28;20554;-90
2023/05/29 21:29:19;;;;;;;10.60;5.57;;;;;;;;;;8461844;28;20043;-90
2023/05/29 21:33:25;;;;;;;10.70;5.78;;;;;;;;;;8461749;28;20048;-93
2023/05/29 21:37:28;;;;;;;12.25;5.70;;;;;;;;;;8461845;28;20039;-90
2023/05/29 21:41:32;;;;;;;7.47;5.10;;;;;;;;;;8468224;28;20043;-91
2023/05/29 21:45:35;;;;;;;10.25;5.57;;;;;;;;;;8468107;28;20040;-90
2023/05/29 21:49:38;;;;;;;8.18;4.90;;;;;;;;;;8468024;28;20505;-90
2023/05/29 21:53:41;;;;;;;8.93;5.70;;;;;;;;;;8467541;28;20046;-91
2023/05/29 21:57:46;;;;;;;10.55;5.47;;;;;;;;;;8467927;28;20134;-91
2023/05/29 22:01:49;;;;;;;10.90;5.63;;;;;;;;;;8467082;28;20058;-90
2023/05/29 22:05:52;;;;;;;10.18;5.13;;;;;;;;;;8467609;28;20047;-90
2023/05/29 22:09:55;;;;;;;8.00;5.05;;;;;;;;;;8466347;28;20521;-89
2023/05/29 22:13:59;;;;;;;9.57;5.45;;;;;;;;;;8467308;28;20113;-90
2023/05/29 22:18:02;;;;;;;7.00;4.95;;;;;;;;;;8467059;28;20143;-91
2023/05/29 22:22:06;;;;;;;10.40;5.25;;;;;;;;;;8467022;28;20036;-89
2023/05/29 22:26:09;;;;;;;10.20;5.22;;;;;;;;;;8467039;28;20053;-90
2023/05/29 22:30:14;;;;;;;9.05;5.50;;;;;;;;;;8466576;28;20053;-90
2023/05/29 22:34:17;;;;;;;10.13;5.63;;;;;;;;;;8466540;28;20112;-90
2023/05/29 22:38:20;;;;;;;9.55;5.63;;;;;;;;;;8466580;28;20043;-90
2023/05/29 22:42:23;;;;;;;8.75;4.97;;;;;;;;;;8466242;28;20053;-90
2023/05/29 22:46:27;;;;;;;11.93;5.97;;;;;;;;;;8466066;28;20070;-90
2023/05/29 22:50:30;;;;;;;9.35;5.68;;;;;;;;;;8465825;28;20036;-90
2023/05/29 22:54:33;;;;;;;9.63;5.88;;;;;;;;;;8466004;28;20043;-90
2023/05/29 22:58:36;;;;;;;9.30;5.15;;;;;;;;;;8465735;28;20118;-90
2023/05/29 23:02:42;;;;;;;9.88;5.50;;;;;;;;;;8465144;28;20047;-91
2023/05/29 23:06:47;;;;;;;11.60;5.65;;;;;;;;;;8465506;28;20046;-90
2023/05/29 23:10:50;;;;;;;8.10;5.28;;;;;;;;;;8465355;28;20088;-91
2023/05/29 23:14:53;;;;;;;8.77;6.05;;;;;;;;;;8465208;28;20068;-90
2023/05/29 23:18:58;;;;;;;11.10;5.72;;;;;;;;;;8461632;28;20071;-90
2023/05/29 23:23:01;;;;;;;13.50;6.07;;;;;;;;;;8464579;28;20127;-91
2023/05/29 23:27:04;;;;;;;10.27;5.68;;;;;;;;;;8465001;28;20049;-90
2023/05/29 23:31:07;;;;;;;8.23;5.93;;;;;;;;;;8464761;28;20088;-90
2023/05/29 23:35:12;;;;;;;10.00;5.70;;;;;;;;;;8464710;28;20047;-90
2023/05/29 23:39:15;;;;;;;13.88;8.73;;;;;;;;;;8464050;28;20051;-91
2023/05/29 23:43:18;;;;;;;8.30;5.82;;;;;;;;;;8464912;28;20122;-91
2023/05/29 23:47:22;;;;;;;7.63;5.60;;;;;;;;;;8464154;28;20126;-90
2023/05/29 23:51:28;;;;;;;9.88;5.75;;;;;;;;;;8464279;28;20039;-90
2023/05/29 23:55:32;;;;;;;9.20;5.80;;;;;;;;;;8450697;28;20035;-90
2023/05/29 23:59:35;;;;;;;9.82;6.22;;;;;;;;;;8463892;28;20043;-91
